createdAt,value
2017-01-14T07:47:13.991Z,0
2017-01-14T07:48:23.260Z,0
2017-01-14T07:49:32.969Z,0
2017-01-14T07:50:42.682Z,0
2017-01-14T07:51:52.392Z,0
2017-01-14T07:53:02.613Z,0
2017-01-14T07:54:12.323Z,0
2017-01-14T07:55:22.043Z,0
2017-01-14T07:56:32.189Z,0
2017-01-14T07:57:42.346Z,0
2017-01-14T07:58:52.107Z,0
2017-01-14T08:00:02.261Z,5
2017-01-14T08:01:12.420Z,5
2017-01-14T08:02:21.699Z,5
2017-01-14T08:03:30.980Z,5
2017-01-14T08:04:40.748Z,5
2017-01-14T08:05:51.786Z,5
2017-01-14T08:07:01.506Z,5
2017-01-14T08:08:12.096Z,5
2017-01-14T08:09:22.246Z,5
2017-01-14T08:10:32.011Z,5
2017-01-14T08:11:41.736Z,5
2017-01-14T08:12:52.766Z,5
2017-01-14T08:14:02.923Z,5
2017-01-14T08:15:13.084Z,5
2017-01-14T08:16:24.161Z,5
2017-01-14T08:17:33.874Z,5
2017-01-14T08:18:44.467Z,5
2017-01-14T08:19:55.061Z,5
2017-01-14T08:21:05.662Z,5
2017-01-14T08:22:15.863Z,5
2017-01-14T08:23:25.580Z,5
2017-01-14T08:24:35.293Z,5
2017-01-14T08:25:45.011Z,5
2017-01-14T08:26:54.288Z,10
2017-01-14T08:28:04.939Z,10
2017-01-14T08:29:15.526Z,10
2017-01-14T08:30:24.803Z,10
2017-01-14T08:31:34.078Z,10
2017-01-14T08:32:43.358Z,10
2017-01-14T08:33:53.123Z,10
2017-01-14T08:35:02.398Z,10
2017-01-14T08:36:12.557Z,10
2017-01-14T08:37:22.299Z,10
2017-01-14T08:38:32.884Z,10
2017-01-14T08:39:43.117Z,10
2017-01-14T08:40:52.407Z,10
2017-01-14T08:42:02.999Z,10
2017-01-14T08:43:13.145Z,10
2017-01-14T08:44:23.734Z,15
2017-01-14T08:45:33.499Z,15
2017-01-14T08:46:42.776Z,15
2017-01-14T08:47:52.960Z,15
2017-01-14T08:49:02.235Z,15
2017-01-14T08:50:11.960Z,15
2017-01-14T08:51:22.609Z,15
2017-01-14T08:52:31.886Z,15
2017-01-14T08:53:41.603Z,10
2017-01-14T08:54:51.324Z,10
2017-01-14T08:56:01.481Z,10
2017-01-14T08:57:11.242Z,10
2017-01-14T08:58:20.964Z,10
2017-01-14T08:59:30.705Z,20
2017-01-14T09:00:40.422Z,20
2017-01-14T09:01:50.580Z,20
2017-01-14T09:03:00.344Z,20
2017-01-14T09:04:10.502Z,20
2017-01-14T09:05:20.215Z,20
2017-01-14T09:06:30.373Z,20
2017-01-14T09:07:40.557Z,20
2017-01-14T09:08:51.198Z,20
2017-01-14T09:10:01.795Z,25
2017-01-14T09:11:12.385Z,25
2017-01-14T09:12:22.534Z,25
2017-01-14T09:13:32.242Z,25
2017-01-14T09:14:42.891Z,25
2017-01-14T09:15:52.609Z,25
2017-01-14T09:17:03.197Z,25
2017-01-14T09:18:13.355Z,30
2017-01-14T09:19:23.955Z,30
2017-01-14T09:20:34.600Z,30
2017-01-14T09:21:44.317Z,30
2017-01-14T09:22:54.478Z,25
2017-01-14T09:24:03.751Z,25
2017-01-14T09:25:14.780Z,30
2017-01-14T09:26:24.545Z,30
2017-01-14T09:27:34.263Z,30
2017-01-14T09:28:43.976Z,30
2017-01-14T09:29:53.685Z,30
2017-01-14T09:31:02.965Z,30
2017-01-14T09:32:13.167Z,30
2017-01-14T09:33:22.876Z,30
2017-01-14T09:34:33.034Z,30
2017-01-14T09:35:43.626Z,30
2017-01-14T09:36:53.340Z,30
2017-01-14T09:38:03.105Z,30
2017-01-14T09:39:12.383Z,30
2017-01-14T09:40:22.975Z,30
2017-01-14T09:41:32.701Z,30
2017-01-14T09:42:42.858Z,30
2017-01-14T09:43:52.627Z,30
2017-01-14T09:45:02.776Z,35
2017-01-14T09:46:12.497Z,35
2017-01-14T09:47:22.234Z,35
2017-01-14T09:48:31.952Z,35
2017-01-14T09:49:41.377Z,35
2017-01-14T09:50:51.970Z,40
2017-01-14T09:52:01.693Z,40
2017-01-14T09:53:11.844Z,40
2017-01-14T09:54:22.001Z,45
2017-01-14T09:55:32.671Z,45
2017-01-14T09:56:42.824Z,45
2017-01-14T09:57:52.537Z,50
2017-01-14T09:59:02.690Z,45
2017-01-14T10:00:12.404Z,50
2017-01-14T10:01:22.165Z,50
2017-01-14T10:02:31.882Z,50
2017-01-14T10:03:41.599Z,50
2017-01-14T10:04:51.308Z,35
2017-01-14T10:06:01.466Z,50
2017-01-14T10:07:11.679Z,55
2017-01-14T10:08:21.828Z,50
2017-01-14T10:09:31.545Z,75
2017-01-14T10:10:42.134Z,75
2017-01-14T10:11:51.852Z,75
2017-01-14T10:13:02.493Z,55
2017-01-14T10:14:12.686Z,45
2017-01-14T10:15:22.863Z,50
2017-01-14T10:16:33.448Z,50
2017-01-14T10:17:44.038Z,40
2017-01-14T10:18:53.799Z,40
2017-01-14T10:20:03.948Z,30
2017-01-14T10:21:14.098Z,30
2017-01-14T10:22:23.374Z,30
2017-01-14T10:23:33.115Z,35
2017-01-14T10:24:43.322Z,40
2017-01-14T10:25:53.486Z,40
2017-01-14T10:27:03.631Z,55
2017-01-14T10:28:13.785Z,45
2017-01-14T10:29:23.502Z,60
2017-01-14T10:30:33.287Z,60
2017-01-14T10:31:43.432Z,50
2017-01-14T10:32:53.613Z,45
2017-01-14T10:34:03.758Z,75
2017-01-14T10:35:13.040Z,60
2017-01-14T10:36:22.797Z,60
2017-01-14T10:37:32.949Z,55
2017-01-14T10:38:42.223Z,60
2017-01-14T10:39:51.504Z,60
2017-01-14T10:41:01.226Z,65
2017-01-14T10:42:11.003Z,50
2017-01-14T10:43:21.600Z,50
2017-01-14T10:44:32.189Z,45
2017-01-14T10:45:45.895Z,50
2017-01-14T10:47:02.416Z,30
2017-01-14T10:48:18.041Z,30
2017-01-14T10:49:28.278Z,30
2017-01-14T10:50:37.547Z,40
2017-01-14T10:51:47.709Z,45
2017-01-14T10:52:58.298Z,45
2017-01-14T10:54:08.511Z,45
2017-01-14T10:55:18.268Z,45
2017-01-14T10:56:28.417Z,50
2017-01-14T10:57:38.567Z,50
2017-01-14T10:58:49.160Z,55
2017-01-14T10:59:58.925Z,55
2017-01-14T11:01:09.538Z,60
2017-01-14T11:02:19.723Z,55
2017-01-14T11:03:29.884Z,55
2017-01-14T11:04:39.182Z,60
2017-01-14T11:05:49.391Z,60
2017-01-14T11:06:59.104Z,65
2017-01-14T11:08:09.721Z,65
2017-01-14T11:09:20.163Z,70
2017-01-14T11:10:30.088Z,85
2017-01-14T11:11:40.861Z,75
2017-01-14T11:12:52.546Z,85
2017-01-14T11:14:02.703Z,80
2017-01-14T11:15:12.450Z,50
2017-01-14T11:16:22.614Z,55
2017-01-14T11:17:32.815Z,55
2017-01-14T11:18:43.444Z,75
2017-01-14T11:19:54.037Z,70
2017-01-14T11:21:04.630Z,65
2017-01-14T11:22:15.232Z,65
2017-01-14T11:23:25.145Z,90
2017-01-14T11:24:36.206Z,85
2017-01-14T11:25:47.235Z,90
2017-01-14T11:26:57.840Z,95
2017-01-14T11:28:08.462Z,105
2017-01-14T11:29:18.235Z,100
2017-01-14T11:30:29.269Z,90
2017-01-14T11:31:39.429Z,75
2017-01-14T11:32:49.159Z,60
2017-01-14T11:33:58.443Z,70
2017-01-14T11:35:09.621Z,65
2017-01-14T11:36:20.650Z,60
2017-01-14T11:37:30.807Z,60
2017-01-14T11:38:40.556Z,60
2017-01-14T11:39:50.281Z,55
2017-01-14T11:41:01.078Z,55
2017-01-14T11:42:12.112Z,55
2017-01-14T11:43:21.869Z,55
2017-01-14T11:44:32.030Z,55
2017-01-14T11:45:41.767Z,55
2017-01-14T11:46:53.648Z,55
2017-01-14T11:48:05.682Z,55
2017-01-14T11:49:15.403Z,55
2017-01-14T11:50:25.552Z,55
2017-01-14T11:51:35.709Z,55
2017-01-14T11:52:46.354Z,55
2017-01-14T11:53:57.391Z,60
2017-01-14T11:55:06.676Z,55
2017-01-14T11:56:16.426Z,60
2017-01-14T11:57:26.147Z,60
2017-01-14T11:58:36.787Z,55
2017-01-14T11:59:47.825Z,55
2017-01-14T12:00:57.982Z,60
2017-01-14T12:02:08.171Z,60
2017-01-14T12:03:18.333Z,60
2017-01-14T12:04:28.106Z,65
2017-01-14T12:05:38.251Z,65
2017-01-14T12:06:47.971Z,70
2017-01-14T12:07:58.129Z,70
2017-01-14T12:09:07.858Z,70
2017-01-14T12:10:17.631Z,70
2017-01-14T12:11:28.220Z,70
2017-01-14T12:12:38.386Z,75
2017-01-14T12:13:48.111Z,70
2017-01-14T12:14:57.832Z,75
2017-01-14T12:16:07.161Z,75
2017-01-14T12:17:17.342Z,75
2017-01-14T12:18:27.063Z,75
2017-01-14T12:19:37.253Z,70
2017-01-14T12:20:47.862Z,70
2017-01-14T12:21:58.071Z,70
2017-01-14T12:23:07.796Z,70
2017-01-14T12:24:17.953Z,65
2017-01-14T12:25:27.674Z,65
2017-01-14T12:26:37.833Z,65
2017-01-14T12:27:48.041Z,60
2017-01-14T12:28:57.322Z,55
2017-01-14T12:30:07.045Z,55
2017-01-14T12:31:17.204Z,55
2017-01-14T12:32:27.366Z,55
2017-01-14T12:33:37.583Z,55
2017-01-14T12:34:47.308Z,55
2017-01-14T12:35:57.469Z,55
2017-01-14T12:37:07.630Z,55
2017-01-14T12:38:17.791Z,60
2017-01-14T12:39:28.000Z,60
2017-01-14T12:40:38.194Z,60
2017-01-14T12:41:48.358Z,60
2017-01-14T12:42:58.516Z,60
2017-01-14T12:44:09.109Z,60
2017-01-14T12:45:18.882Z,60
2017-01-14T12:46:29.040Z,60
2017-01-14T12:47:39.196Z,60
2017-01-14T12:48:49.370Z,65
2017-01-14T12:49:59.087Z,75
2017-01-14T12:51:08.864Z,55
2017-01-14T12:52:18.589Z,50
2017-01-14T12:53:28.311Z,50
2017-01-14T12:54:37.596Z,45
2017-01-14T12:55:47.753Z,45
2017-01-14T12:56:57.954Z,45
2017-01-14T12:58:08.119Z,40
2017-01-14T12:59:17.840Z,40
2017-01-14T13:00:27.558Z,35
2017-01-14T13:01:38.167Z,40
2017-01-14T13:02:48.376Z,45
2017-01-14T13:03:58.548Z,40
2017-01-14T13:05:08.718Z,40
2017-01-14T13:06:18.887Z,45
2017-01-14T13:07:29.484Z,45
2017-01-14T13:08:40.142Z,50
2017-01-14T13:09:50.746Z,60
2017-01-14T13:11:00.924Z,55
2017-01-14T13:12:11.081Z,50
2017-01-14T13:13:21.246Z,45
2017-01-14T13:14:30.595Z,40
2017-01-14T13:15:40.756Z,40
2017-01-14T13:16:51.354Z,40
2017-01-14T13:18:01.519Z,35
2017-01-14T13:19:11.679Z,30
2017-01-14T13:20:21.885Z,30
2017-01-14T13:21:32.923Z,35
2017-01-14T13:22:42.211Z,35
2017-01-14T13:23:53.249Z,35
2017-01-14T13:25:03.418Z,35
2017-01-14T13:26:14.067Z,35
2017-01-14T13:27:24.232Z,30
2017-01-14T13:28:33.953Z,30
2017-01-14T13:29:43.672Z,30
2017-01-14T13:30:53.836Z,25
2017-01-14T13:32:03.601Z,20
2017-01-14T13:33:14.202Z,15
2017-01-14T13:34:24.800Z,15
2017-01-14T13:35:35.397Z,20
2017-01-14T13:36:46.000Z,30
2017-01-14T13:37:55.631Z,25
2017-01-14T13:39:06.244Z,25
2017-01-14T13:40:16.613Z,30
2017-01-14T13:41:26.454Z,30
2017-01-14T13:42:36.040Z,25
2017-01-14T13:43:46.465Z,20
2017-01-14T13:44:56.830Z,25
2017-01-14T13:46:06.795Z,25
2017-01-14T13:47:16.604Z,25
2017-01-14T13:48:26.541Z,25
2017-01-14T13:49:36.754Z,30
2017-01-14T13:50:46.488Z,30
2017-01-14T13:51:57.545Z,25
2017-01-14T13:53:07.710Z,20
2017-01-14T13:54:17.619Z,15
2017-01-14T13:55:28.136Z,20
2017-01-14T13:56:37.874Z,15
2017-01-14T13:57:48.111Z,20
2017-01-14T13:58:58.432Z,20
2017-01-14T14:00:09.222Z,25
2017-01-14T14:01:19.026Z,20
2017-01-14T14:02:28.856Z,20
2017-01-14T14:03:38.721Z,15
2017-01-14T14:04:48.450Z,10
2017-01-14T14:05:59.067Z,10
2017-01-14T14:07:09.348Z,10
2017-01-14T14:08:19.074Z,5
2017-01-14T14:09:29.283Z,10
2017-01-14T14:10:38.576Z,15
2017-01-14T14:11:47.869Z,15
2017-01-14T14:12:57.594Z,15
2017-01-14T14:14:07.759Z,10
2017-01-14T14:15:17.524Z,10
2017-01-14T14:16:28.214Z,10
2017-01-14T14:17:38.483Z,10
2017-01-14T14:18:48.512Z,10
2017-01-14T14:19:59.213Z,10
2017-01-14T14:21:10.862Z,10
2017-01-14T14:22:21.495Z,5
2017-01-14T14:23:31.864Z,5
2017-01-14T14:24:42.046Z,5
2017-01-14T14:25:51.771Z,5
2017-01-14T14:27:01.996Z,5
2017-01-14T14:28:11.282Z,5
2017-01-14T14:29:21.447Z,5
2017-01-14T14:30:31.823Z,5
2017-01-14T14:31:41.977Z,10
2017-01-14T14:32:52.494Z,10
2017-01-14T14:34:04.023Z,10
2017-01-14T14:35:13.354Z,10
2017-01-14T14:36:23.082Z,10
2017-01-14T14:37:33.707Z,10
2017-01-14T14:38:43.480Z,15
2017-01-14T14:39:53.209Z,15
2017-01-14T14:41:03.402Z,15
2017-01-14T14:42:13.567Z,15
2017-01-14T14:43:23.509Z,15
2017-01-14T14:44:33.282Z,15
2017-01-14T14:45:43.551Z,15
2017-01-14T14:46:54.316Z,10
2017-01-14T14:48:04.481Z,10
2017-01-14T14:49:14.650Z,10
2017-01-14T14:50:25.511Z,10
2017-01-14T14:51:35.833Z,10
2017-01-14T14:52:45.858Z,10
2017-01-14T14:53:55.167Z,5
2017-01-14T14:55:05.328Z,5
2017-01-14T14:56:15.537Z,5
2017-01-14T14:57:25.703Z,5
2017-01-14T14:58:35.876Z,5
2017-01-14T14:59:45.593Z,5
2017-01-14T15:00:56.198Z,5
2017-01-14T15:02:07.047Z,5
2017-01-14T15:03:17.828Z,5
2017-01-14T15:04:27.549Z,5
2017-01-14T15:05:37.615Z,5
2017-01-14T15:06:48.692Z,5
2017-01-14T15:07:59.337Z,5
2017-01-14T15:09:09.066Z,5
2017-01-14T15:10:19.227Z,5
2017-01-14T15:11:29.380Z,5
2017-01-14T15:12:39.542Z,5
2017-01-14T15:13:49.535Z,0
2017-01-14T15:14:59.257Z,0
2017-01-14T15:16:08.977Z,0
2017-01-14T15:17:19.574Z,0
2017-01-14T15:18:29.736Z,0
2017-01-14T15:19:39.945Z,0
2017-01-14T15:20:49.666Z,0
2017-01-14T15:21:59.155Z,0
2017-01-14T15:23:08.988Z,0
2017-01-14T15:24:18.483Z,0
2017-01-14T15:25:29.227Z,0
2017-01-14T15:26:38.508Z,0
2017-01-14T15:27:49.105Z,0
2017-01-14T15:28:59.266Z,0
2017-01-14T15:30:08.991Z,0
2017-01-14T15:31:18.776Z,0
2017-01-14T15:32:28.938Z,0
2017-01-14T15:33:39.091Z,0
2017-01-14T15:34:49.700Z,0
2017-01-14T15:35:59.629Z,0
2017-01-14T15:37:10.282Z,0
2017-01-14T15:38:20.447Z,0
2017-01-14T15:39:30.616Z,0
2017-01-14T15:40:41.014Z,0
2017-01-14T15:41:51.615Z,0
2017-01-14T15:43:02.932Z,0
2017-01-14T15:44:12.425Z,0
2017-01-14T15:45:22.330Z,0
2017-01-14T15:46:33.056Z,0
2017-01-14T15:47:42.345Z,0
2017-01-14T15:48:52.110Z,0
2017-01-14T15:50:02.275Z,0
2017-01-14T15:51:14.785Z,0
2017-01-14T15:52:25.386Z,0
2017-01-14T15:53:35.551Z,0
2017-01-14T15:54:45.148Z,0
2017-01-14T15:55:54.873Z,0
2017-01-14T15:57:04.594Z,0
2017-01-14T15:58:15.195Z,0
2017-01-14T15:59:25.133Z,0
2017-01-14T16:00:35.546Z,0
2017-01-14T16:01:46.151Z,0
2017-01-14T16:02:56.088Z,0
2017-01-14T16:04:06.905Z,0
2017-01-14T16:05:17.075Z,0
2017-01-14T16:06:26.408Z,0
2017-01-14T16:07:36.777Z,0
2017-01-14T16:08:46.282Z,0
2017-01-14T16:09:57.187Z,0
2017-01-14T16:11:06.908Z,0
2017-01-14T16:12:17.122Z,0
2017-01-14T16:13:27.723Z,0
2017-01-14T16:14:37.000Z,0
2017-01-14T16:15:46.732Z,0
2017-01-14T16:16:56.018Z,0
2017-01-14T16:18:06.251Z,0
2017-01-14T16:19:15.985Z,0
2017-01-14T16:20:26.578Z,0
2017-01-14T16:21:36.351Z,0
2017-01-14T16:22:46.716Z,0
2017-01-14T16:23:56.938Z,0
2017-01-14T16:25:07.538Z,0
2017-01-14T16:26:18.139Z,0
2017-01-14T16:27:28.301Z,0
2017-01-14T16:28:38.802Z,0
2017-01-14T16:29:49.235Z,0
2017-01-14T16:30:59.397Z,0
2017-01-14T16:32:09.989Z,0
2017-01-14T16:33:20.771Z,0
2017-01-14T16:34:31.044Z,0
2017-01-14T16:35:40.837Z,0
2017-01-14T16:36:50.763Z,0
2017-01-14T16:38:00.927Z,0
2017-01-14T16:39:11.092Z,0
2017-01-14T16:40:22.342Z,0
2017-01-14T16:41:32.551Z,0
2017-01-14T16:42:42.724Z,0
2017-01-14T16:43:52.441Z,0
2017-01-14T16:45:02.603Z,0
2017-01-14T16:46:13.203Z,0
2017-01-14T16:47:22.977Z,0
2017-01-14T16:48:32.892Z,0
2017-01-14T16:49:42.987Z,0
2017-01-14T16:50:53.596Z,0
2017-01-14T16:52:03.325Z,0
2017-01-14T16:53:13.631Z,0
2017-01-14T16:54:22.915Z,0
2017-01-14T16:55:34.049Z,0
2017-01-14T16:56:43.550Z,0
2017-01-14T16:57:53.879Z,0
2017-01-14T16:59:04.088Z,0
2017-01-14T17:00:14.966Z,0
2017-01-14T17:01:25.127Z,0
2017-01-14T17:02:34.944Z,0
2017-01-14T17:03:45.105Z,0
2017-01-14T17:04:55.314Z,0
2017-01-14T17:06:04.599Z,0
2017-01-14T17:07:14.524Z,0
2017-01-14T17:08:25.322Z,0
2017-01-14T17:09:36.107Z,0
2017-01-14T17:10:45.448Z,0
2017-01-14T17:11:55.373Z,0
2017-01-14T17:13:05.090Z,0
2017-01-14T17:14:14.812Z,0
2017-01-14T17:15:24.977Z,0
2017-01-14T17:16:35.410Z,0
2017-01-14T17:17:45.131Z,0
2017-01-14T17:18:55.292Z,0
2017-01-14T17:20:05.453Z,0
2017-01-14T17:21:14.734Z,0
2017-01-14T17:22:24.504Z,0
2017-01-14T17:23:34.861Z,0
2017-01-14T17:24:44.586Z,0
2017-01-14T17:25:54.307Z,0
2017-01-14T17:27:03.592Z,0
2017-01-14T17:28:13.365Z,0
2017-01-14T17:29:23.087Z,0
2017-01-14T17:30:33.249Z,0
2017-01-14T17:31:43.844Z,0
2017-01-14T17:32:54.881Z,0
2017-01-14T17:34:05.087Z,0
2017-01-14T17:35:14.374Z,0
2017-01-14T17:36:24.977Z,0
2017-01-14T17:37:35.498Z,0
2017-01-14T17:38:44.907Z,0
2017-01-14T17:39:55.589Z,0
2017-01-14T17:41:05.765Z,0
2017-01-14T17:42:15.775Z,0
2017-01-14T17:43:25.976Z,0
2017-01-14T17:44:35.705Z,0
2017-01-14T17:45:45.042Z,0
2017-01-14T17:46:55.907Z,0
2017-01-14T17:48:05.628Z,0
2017-01-14T17:49:14.909Z,0
2017-01-14T17:50:25.515Z,0
2017-01-14T17:51:35.964Z,0
2017-01-14T17:52:45.849Z,0
2017-01-14T17:53:56.350Z,0
2017-01-14T17:55:06.511Z,0
2017-01-14T17:56:17.136Z,0
2017-01-14T17:57:27.854Z,0
2017-01-14T17:58:38.203Z,0
2017-01-14T17:59:47.484Z,0
2017-01-14T18:00:57.456Z,0
2017-01-14T18:02:07.179Z,0
2017-01-14T18:03:16.955Z,0
2017-01-14T18:04:26.680Z,0
2017-01-14T18:05:36.869Z,0
2017-01-14T18:06:46.151Z,0
2017-01-14T18:07:55.872Z,0
2017-01-14T18:09:05.645Z,0
2017-01-14T18:10:15.374Z,0
2017-01-14T18:11:26.411Z,0
2017-01-14T18:12:36.565Z,0
2017-01-14T18:13:46.286Z,0
2017-01-14T18:14:56.059Z,0
2017-01-14T18:16:06.212Z,0
2017-01-14T18:17:16.369Z,0
2017-01-14T18:18:26.534Z,0
2017-01-14T18:19:37.128Z,0
2017-01-14T18:20:46.453Z,0
2017-01-14T18:21:55.734Z,0
2017-01-14T18:23:05.451Z,0
2017-01-14T18:24:15.624Z,0
2017-01-14T18:25:25.781Z,0
2017-01-14T18:26:35.986Z,0
2017-01-14T18:27:45.271Z,0
2017-01-14T18:28:54.553Z,0
2017-01-14T18:30:04.274Z,0
2017-01-14T18:31:13.995Z,0
2017-01-14T18:32:24.204Z,0
2017-01-14T18:33:33.929Z,0
2017-01-14T18:34:43.655Z,0
2017-01-14T18:35:53.396Z,0
2017-01-14T18:37:03.124Z,0
2017-01-14T18:38:13.806Z,0
2017-01-14T18:39:24.410Z,0
2017-01-14T18:40:34.571Z,0
2017-01-14T18:41:44.292Z,0
2017-01-14T18:42:54.037Z,0
2017-01-14T18:44:03.806Z,0
2017-01-14T18:45:13.963Z,0
2017-01-14T18:46:25.000Z,0
2017-01-14T18:47:34.717Z,0
2017-01-14T18:48:44.886Z,0
2017-01-14T18:49:55.095Z,0
2017-01-14T18:51:04.384Z,0
2017-01-14T18:52:13.665Z,0
2017-01-14T18:53:23.830Z,0
2017-01-14T18:54:33.118Z,0
2017-01-14T18:55:42.891Z,0
2017-01-14T18:56:53.048Z,0
2017-01-14T18:58:03.645Z,0
2017-01-14T18:59:13.359Z,0
2017-01-14T19:00:22.636Z,0
2017-01-14T19:01:33.717Z,0
2017-01-14T19:02:43.429Z,0
2017-01-14T19:03:54.022Z,0
2017-01-14T19:05:04.187Z,0
2017-01-14T19:06:14.344Z,0
2017-01-14T19:07:24.121Z,0
2017-01-14T19:08:33.838Z,0
2017-01-14T19:09:43.559Z,0
2017-01-14T19:10:54.604Z,0
2017-01-14T19:12:04.765Z,0
2017-01-14T19:13:14.969Z,0
2017-01-14T19:14:25.566Z,0
2017-01-14T19:15:35.723Z,0
2017-01-14T19:16:45.004Z,0
2017-01-14T19:17:54.720Z,0
2017-01-14T19:19:04.929Z,0
2017-01-14T19:20:15.522Z,0
2017-01-14T19:21:26.127Z,0
2017-01-14T19:22:35.412Z,0
2017-01-14T19:23:46.009Z,0
2017-01-14T19:24:56.653Z,0
2017-01-14T19:26:06.814Z,0
2017-01-14T19:27:16.523Z,0
2017-01-14T19:28:26.676Z,0
2017-01-14T19:29:36.837Z,0
2017-01-14T19:30:47.047Z,0
2017-01-14T19:31:57.208Z,0
2017-01-14T19:33:07.801Z,0
2017-01-14T19:34:18.402Z,0
2017-01-14T19:35:28.559Z,0
2017-01-14T19:36:39.212Z,0
2017-01-14T19:37:50.249Z,0
2017-01-14T19:39:00.406Z,0
2017-01-14T19:40:09.688Z,0
2017-01-14T19:41:19.853Z,0
2017-01-14T19:42:29.621Z,0
2017-01-14T19:43:39.783Z,0
2017-01-14T19:44:49.936Z,0
2017-01-14T19:46:00.093Z,0
2017-01-14T19:47:10.694Z,0
2017-01-14T19:48:20.903Z,0
2017-01-14T19:49:30.192Z,0
2017-01-14T19:50:40.349Z,0
2017-01-14T19:51:49.634Z,0
2017-01-14T19:52:58.915Z,0
2017-01-14T19:54:09.144Z,0
2017-01-14T19:55:18.862Z,0
2017-01-14T19:56:29.015Z,0
2017-01-14T19:57:39.180Z,0
2017-01-14T19:58:49.773Z,0
2017-01-14T19:59:59.742Z,0
2017-01-14T20:01:09.463Z,0
2017-01-14T20:02:20.064Z,0
2017-01-14T20:03:31.117Z,0
2017-01-14T20:04:41.271Z,0
2017-01-14T20:05:51.479Z,0
2017-01-14T20:07:02.093Z,0
2017-01-14T20:08:12.259Z,0
2017-01-14T20:09:21.540Z,0
2017-01-14T20:10:31.265Z,0
2017-01-14T20:11:41.034Z,0
2017-01-14T20:12:51.195Z,0
2017-01-14T20:14:01.365Z,0
2017-01-14T20:15:11.522Z,0
2017-01-14T20:16:21.244Z,0
2017-01-14T20:17:31.885Z,0
2017-01-14T20:18:41.166Z,0
2017-01-14T20:19:51.764Z,0
2017-01-14T20:21:01.481Z,0
2017-01-14T20:22:11.662Z,0
2017-01-14T20:23:21.427Z,0
2017-01-14T20:24:32.900Z,0
2017-01-14T20:25:42.186Z,0
2017-01-14T20:26:52.787Z,0
2017-01-14T20:28:02.101Z,0
2017-01-14T20:29:12.309Z,0
2017-01-14T20:30:22.043Z,0
2017-01-14T20:31:31.760Z,0
2017-01-14T20:32:41.918Z,0
2017-01-14T20:33:51.643Z,0
2017-01-14T20:35:01.512Z,0
2017-01-14T20:36:11.233Z,0
2017-01-14T20:37:21.387Z,0
2017-01-14T20:38:31.572Z,0
2017-01-14T20:39:41.733Z,0
2017-01-14T20:40:51.503Z,0
2017-01-14T20:42:01.225Z,0
2017-01-14T20:43:10.501Z,0
2017-01-14T20:44:20.222Z,0
2017-01-14T20:45:29.499Z,0
2017-01-14T20:46:39.277Z,0
2017-01-14T20:47:50.306Z,0
2017-01-14T20:49:00.468Z,0
2017-01-14T20:50:10.633Z,0
2017-01-14T20:51:19.914Z,0
2017-01-14T20:52:29.835Z,0
2017-01-14T20:53:39.114Z,0
2017-01-14T20:54:48.394Z,0
2017-01-14T20:55:58.115Z,0
2017-01-14T20:57:07.836Z,0
2017-01-14T20:58:18.474Z,0
2017-01-14T20:59:27.751Z,0
2017-01-14T21:00:37.909Z,0
2017-01-14T21:01:47.626Z,0
2017-01-14T21:02:57.356Z,0
2017-01-14T21:04:08.004Z,0
2017-01-14T21:05:17.305Z,0
2017-01-14T21:06:27.463Z,0
2017-01-14T21:07:38.056Z,0
2017-01-14T21:08:47.769Z,0
2017-01-14T21:09:58.855Z,0
2017-01-14T21:11:08.575Z,0
2017-01-14T21:12:18.301Z,0
2017-01-14T21:13:28.019Z,0
2017-01-14T21:14:38.616Z,0
2017-01-14T21:15:49.265Z,0
2017-01-14T21:16:59.447Z,0
2017-01-14T21:18:10.040Z,0
2017-01-14T21:19:19.757Z,0
2017-01-14T21:20:29.486Z,0
2017-01-14T21:21:39.696Z,0
2017-01-14T21:22:49.849Z,0
2017-01-14T21:24:00.439Z,0
2017-01-14T21:25:11.036Z,0
2017-01-14T21:26:21.630Z,0
2017-01-14T21:27:31.495Z,0
2017-01-14T21:28:41.652Z,0
2017-01-14T21:29:52.246Z,0
2017-01-14T21:31:02.403Z,0
2017-01-14T21:32:12.121Z,0
2017-01-14T21:33:22.762Z,0
2017-01-14T21:34:32.483Z,0
2017-01-14T21:35:42.640Z,0
2017-01-14T21:36:52.798Z,0
2017-01-14T21:38:02.515Z,0
2017-01-14T21:39:13.160Z,0
2017-01-14T21:40:22.886Z,0
2017-01-14T21:41:32.607Z,0
2017-01-14T21:42:42.769Z,0
2017-01-14T21:43:52.498Z,0
2017-01-14T21:45:02.706Z,0
2017-01-14T21:46:13.308Z,0
2017-01-14T21:47:23.469Z,0
2017-01-14T21:48:33.635Z,0
2017-01-14T21:49:43.796Z,0
2017-01-14T21:50:53.569Z,0
2017-01-14T21:52:03.291Z,0
2017-01-14T21:53:13.020Z,0
2017-01-14T21:54:23.618Z,0
2017-01-14T21:55:33.334Z,0
2017-01-14T21:56:43.104Z,0
2017-01-14T21:57:52.821Z,0
2017-01-14T21:59:03.415Z,0
2017-01-14T22:00:13.572Z,0
2017-01-14T22:01:22.857Z,0
2017-01-14T22:02:33.507Z,0
2017-01-14T22:03:44.100Z,0
2017-01-14T22:04:54.701Z,0
2017-01-14T22:06:05.318Z,0
2017-01-14T22:07:15.039Z,0
2017-01-14T22:08:24.805Z,0
2017-01-14T22:09:34.522Z,0
2017-01-14T22:10:44.243Z,0
2017-01-14T22:11:54.857Z,0
2017-01-14T22:13:05.014Z,0
2017-01-14T22:14:15.251Z,0
2017-01-14T22:15:26.285Z,0
2017-01-14T22:16:35.570Z,0
2017-01-14T22:17:46.168Z,0
2017-01-14T22:18:55.897Z,0
2017-01-14T22:20:05.278Z,0
2017-01-14T22:21:15.003Z,0
2017-01-14T22:22:25.169Z,0
2017-01-14T22:23:35.758Z,0
2017-01-14T22:24:45.479Z,0
2017-01-14T22:25:56.129Z,0
2017-01-14T22:27:06.290Z,0
2017-01-14T22:28:16.883Z,0
2017-01-14T22:29:26.164Z,0
2017-01-14T22:30:36.321Z,0
2017-01-14T22:31:47.011Z,0
2017-01-14T22:32:56.732Z,0
2017-01-14T22:34:06.017Z,0
2017-01-14T22:35:16.606Z,0
2017-01-14T22:36:27.215Z,0
2017-01-14T22:37:37.417Z,0
2017-01-14T22:38:47.135Z,0
2017-01-14T22:39:57.292Z,0
2017-01-14T22:41:06.573Z,0
2017-01-14T22:42:16.294Z,0
2017-01-14T22:43:26.059Z,0
2017-01-14T22:44:36.221Z,0
2017-01-14T22:45:45.938Z,0
2017-01-14T22:46:55.687Z,0
2017-01-14T22:48:06.280Z,0
2017-01-14T22:49:16.926Z,0
2017-01-14T22:50:26.667Z,0
2017-01-14T22:51:37.268Z,0
2017-01-14T22:52:46.989Z,0
2017-01-14T22:53:56.267Z,0
2017-01-14T22:55:06.920Z,0
2017-01-14T22:56:17.081Z,0
2017-01-14T22:57:27.686Z,0
2017-01-14T22:58:37.839Z,0
2017-01-14T22:59:47.116Z,0
2017-01-14T23:00:57.770Z,0
2017-01-14T23:02:07.487Z,0
2017-01-14T23:03:17.644Z,0
2017-01-14T23:04:27.797Z,0
2017-01-14T23:05:37.519Z,0
2017-01-14T23:06:47.728Z,0
2017-01-14T23:07:58.321Z,0
2017-01-14T23:09:08.910Z,0
2017-01-14T23:10:18.192Z,0
2017-01-14T23:11:28.785Z,0
2017-01-14T23:12:38.114Z,0
2017-01-14T23:13:49.607Z,0
2017-01-14T23:15:00.636Z,0
2017-01-14T23:16:11.233Z,0
2017-01-14T23:17:20.955Z,0
2017-01-14T23:18:31.158Z,0
2017-01-14T23:19:41.315Z,0
2017-01-14T23:20:52.341Z,0
2017-01-14T23:22:01.622Z,0
2017-01-14T23:23:11.783Z,0
